sensor_id;sensor_type;location;lat;lon;timestamp;pressure;altitude;pressure_sealevel;temperature;humidity
26539;BME280;14205;43.200;24.170;2023-07-02T00:01:46;36495.03;;;-137.44;100.00
26539;BME280;14205;43.200;24.170;2023-07-02T00:04:13;39305.56;;;-137.44;100.00
26539;BME280;14205;43.200;24.170;2023-07-02T00:06:42;40072.50;;;-137.44;100.00
26539;BME280;14205;43.200;24.170;2023-07-02T00:09:08;40328.19;;;-137.44;100.00
26539;BME280;14205;43.200;24.170;2023-07-02T00:11:35;42374.31;;;-137.44;100.00
26539;BME280;14205;43.200;24.170;2023-07-02T00:14:01;43397.84;;;-137.44;100.00
26539;BME280;14205;43.200;24.170;2023-07-02T00:16:26;42886.03;;;-137.44;100.00
26539;BME280;14205;43.200;24.170;2023-07-02T00:18:51;42374.31;;;-137.44;100.00
26539;BME280;14205;43.200;24.170;2023-07-02T00:21:20;45445.84;;;-137.44;100.00
26539;BME280;14205;43.200;24.170;2023-07-02T00:23:47;45189.78;;;-137.44;100.00
26539;BME280;14205;43.200;24.170;2023-07-02T00:26:12;45445.84;;;-137.44;100.00
26539;BME280;14205;43.200;24.170;2023-07-02T00:28:38;44165.69;;;-137.44;100.00
26539;BME280;14205;43.200;24.170;2023-07-02T00:31:03;42374.31;;;-137.44;100.00
26539;BME280;14205;43.200;24.170;2023-07-02T00:33:31;40583.88;;;-137.44;100.00
26539;BME280;14205;43.200;24.170;2023-07-02T00:35:56;39816.84;;;-137.44;100.00
26539;BME280;14205;43.200;24.170;2023-07-02T00:38:23;37261.31;;;-137.44;100.00
26539;BME280;14205;43.200;24.170;2023-07-02T00:40:48;41862.66;;;-137.44;100.00
26539;BME280;14205;43.200;24.170;2023-07-02T00:43:14;48520.19;;;-137.44;100.00
26539;BME280;14205;43.200;24.170;2023-07-02T00:45:39;56475.19;;;-137.44;100.00
26539;BME280;14205;43.200;24.170;2023-07-02T00:48:06;55961.41;;;-137.44;100.00
26539;BME280;14205;43.200;24.170;2023-07-02T00:50:32;55190.84;;;-137.44;100.00
26539;BME280;14205;43.200;24.170;2023-07-02T00:52:57;49032.84;;;-137.44;100.00
26539;BME280;14205;43.200;24.170;2023-07-02T00:55:23;45958.03;;;-137.44;100.00
26539;BME280;14205;43.200;24.170;2023-07-02T00:57:49;48776.50;;;-137.44;100.00
26539;BME280;14205;43.200;24.170;2023-07-02T01:00:15;54420.50;;;-137.44;100.00
26539;BME280;14205;43.200;24.170;2023-07-02T01:02:40;52623.66;;;-137.44;100.00
26539;BME280;14205;43.200;24.170;2023-07-02T01:05:15;48520.19;;;-137.44;100.00
26539;BME280;14205;43.200;24.170;2023-07-02T01:07:41;58531.13;;;-137.44;100.00
26539;BME280;14205;43.200;24.170;2023-07-02T01:10:07;67282.78;;;-137.44;100.00
26539;BME280;14205;43.200;24.170;2023-07-02T01:12:33;67540.53;;;-137.44;100.00
26539;BME280;14205;43.200;24.170;2023-07-02T01:15:03;64706.44;;;-137.44;100.00
26539;BME280;14205;43.200;24.170;2023-07-02T01:17:31;73215.75;;;-137.44;100.00
26539;BME280;14205;43.200;24.170;2023-07-02T01:20:06;74765.19;;;-137.44;100.00
26539;BME280;14205;43.200;24.170;2023-07-02T01:22:34;77866.16;;;-137.44;100.00
26539;BME280;14205;43.200;24.170;2023-07-02T01:25:00;72957.59;;;-137.44;100.00
26539;BME280;14205;43.200;24.170;2023-07-02T01:27:28;71150.94;;;-137.44;100.00
26539;BME280;14205;43.200;24.170;2023-07-02T01:29:54;63676.44;;;-137.44;100.00
26539;BME280;14205;43.200;24.170;2023-07-02T01:32:21;66509.66;;;-137.44;100.00
26539;BME280;14205;43.200;24.170;2023-07-02T01:34:46;58274.06;;;-137.44;100.00
26539;BME280;14205;43.200;24.170;2023-07-02T01:37:18;69603.16;;;-137.44;100.00
26539;BME280;14205;43.200;24.170;2023-07-02T01:39:44;80193.72;;;-137.44;100.00
26539;BME280;14205;43.200;24.170;2023-07-02T01:42:14;79417.69;;;-137.44;100.00
26539;BME280;14205;43.200;24.170;2023-07-02T01:44:42;70119.00;;;-137.44;100.00
26539;BME280;14205;43.200;24.170;2023-07-02T01:47:07;70119.00;;;-137.44;100.00
26539;BME280;14205;43.200;24.170;2023-07-02T01:49:33;64706.44;;;-137.44;100.00
26539;BME280;14205;43.200;24.170;2023-07-02T01:51:58;59816.72;;;-137.44;100.00
26539;BME280;14205;43.200;24.170;2023-07-02T01:54:27;51853.88;;;-137.44;100.00
26539;BME280;14205;43.200;24.170;2023-07-02T01:56:53;57503.00;;;-137.44;100.00
26539;BME280;14205;43.200;24.170;2023-07-02T01:59:19;62132.03;;;-137.44;100.00
26539;BME280;14205;43.200;24.170;2023-07-02T02:01:44;61360.09;;;-137.44;100.00
26539;BME280;14205;43.200;24.170;2023-07-02T02:04:11;69087.38;;;-137.44;100.00
26539;BME280;14205;43.200;24.170;2023-07-02T02:06:37;84076.47;;;-137.44;100.00
26539;BME280;14205;43.200;24.170;2023-07-02T02:09:04;78900.44;;;-137.44;100.00
26539;BME280;14205;43.200;24.170;2023-07-02T02:11:30;66509.66;;;-137.44;100.00
26539;BME280;14205;43.200;24.170;2023-07-02T02:13:57;59045.31;;;-137.44;100.00
26539;BME280;14205;43.200;24.170;2023-07-02T02:16:22;68829.53;;;-137.44;100.00
26539;BME280;14205;43.200;24.170;2023-07-02T02:18:48;76056.91;;;-137.44;100.00
26539;BME280;14205;43.200;24.170;2023-07-02T02:21:17;69861.06;;;-137.44;100.00
26539;BME280;14205;43.200;24.170;2023-07-02T02:23:42;80193.72;;;-137.44;100.00
26539;BME280;14205;43.200;24.170;2023-07-02T02:26:08;83558.53;;;-137.44;100.00
26539;BME280;14205;43.200;24.170;2023-07-02T02:28:33;87704.34;;;-137.44;100.00
26539;BME280;14205;43.200;24.170;2023-07-02T02:30:58;95491.19;;;-137.44;100.00
26539;BME280;14205;43.200;24.170;2023-07-02T02:33:24;86926.63;;;-137.44;100.00
26539;BME280;14205;43.200;24.170;2023-07-02T02:35:49;80452.44;;;-137.44;100.00
26539;BME280;14205;43.200;24.170;2023-07-02T02:38:15;74765.19;;;-137.44;100.00
26539;BME280;14205;43.200;24.170;2023-07-02T02:40:40;60073.91;;;-137.44;100.00
26539;BME280;14205;43.200;24.170;2023-07-02T02:43:06;47495.09;;;-137.44;100.00
26539;BME280;14205;43.200;24.170;2023-07-02T02:45:32;45958.03;;;-137.44;100.00
26539;BME280;14205;43.200;24.170;2023-07-02T02:47:57;50571.28;;;-137.44;100.00
26539;BME280;14205;43.200;24.170;2023-07-02T02:50:22;53393.63;;;-137.44;100.00
26539;BME280;14205;43.200;24.170;2023-07-02T02:52:48;62904.16;;;-137.44;100.00
26539;BME280;14205;43.200;24.170;2023-07-02T02:55:13;80711.16;;;-137.44;100.00
26539;BME280;14205;43.200;24.170;2023-07-02T02:57:39;64191.41;;;-137.44;100.00
26539;BME280;14205;43.200;24.170;2023-07-02T03:00:05;64963.97;;;-137.44;100.00
26539;BME280;14205;43.200;24.170;2023-07-02T03:02:32;60588.31;;;-137.44;100.00
26539;BME280;14205;43.200;24.170;2023-07-02T03:04:57;53136.94;;;-137.44;100.00
26539;BME280;14205;43.200;24.170;2023-07-02T03:07:30;47495.09;;;-137.44;100.00
26539;BME280;14205;43.200;24.170;2023-07-02T03:09:56;49032.84;;;-137.44;100.00
26539;BME280;14205;43.200;24.170;2023-07-02T03:12:22;56475.19;;;-137.44;100.00
26539;BME280;14205;43.200;24.170;2023-07-02T03:14:47;82522.84;;;-137.44;100.00
26539;BME280;14205;43.200;24.170;2023-07-02T03:17:18;83558.53;;;-137.44;100.00
26539;BME280;14205;43.200;24.170;2023-07-02T03:19:43;88482.25;;;-137.44;100.00
26539;BME280;14205;43.200;24.170;2023-07-02T03:22:09;87185.84;;;-137.44;100.00
26539;BME280;14205;43.200;24.170;2023-07-02T03:24:34;86667.41;;;-137.44;100.00
26539;BME280;14205;43.200;24.170;2023-07-02T03:27:00;85889.94;;;-137.44;100.00
26539;BME280;14205;43.200;24.170;2023-07-02T03:29:25;73990.41;;;-137.44;100.00
26539;BME280;14205;43.200;24.170;2023-07-02T03:31:50;67540.53;;;-137.44;100.00
26539;BME280;14205;43.200;24.170;2023-07-02T03:34:16;68056.06;;;-137.44;100.00
26539;BME280;14205;43.200;24.170;2023-07-02T03:36:41;59559.56;;;-137.44;100.00
26539;BME280;14205;43.200;24.170;2023-07-02T03:39:07;61874.69;;;-137.44;100.00
26539;BME280;14205;43.200;24.170;2023-07-02T03:41:32;76056.91;;;-137.44;100.00
26539;BME280;14205;43.200;24.170;2023-07-02T03:43:58;76832.19;;;-137.44;100.00
26539;BME280;14205;43.200;24.170;2023-07-02T03:46:23;70634.94;;;-137.44;100.00
26539;BME280;14205;43.200;24.170;2023-07-02T03:48:49;65479.13;;;-137.44;100.00
26539;BME280;14205;43.200;24.170;2023-07-02T03:51:14;56218.28;;;-137.44;100.00
26539;BME280;14205;43.200;24.170;2023-07-02T03:53:43;75023.50;;;-137.44;100.00
26539;BME280;14205;43.200;24.170;2023-07-02T03:56:08;70119.00;;;-137.44;100.00
26539;BME280;14205;43.200;24.170;2023-07-02T03:58:34;54934.06;;;-137.44;100.00
26539;BME280;14205;43.200;24.170;2023-07-02T04:01:00;48007.59;;;-137.44;100.00
26539;BME280;14205;43.200;24.170;2023-07-02T04:03:26;47238.88;;;-137.44;100.00
26539;BME280;14205;43.200;24.170;2023-07-02T04:05:51;47751.34;;;-137.44;100.00
26539;BME280;14205;43.200;24.170;2023-07-02T04:08:17;45958.03;;;-137.44;100.00
26539;BME280;14205;43.200;24.170;2023-07-02T04:10:43;41351.09;;;-137.44;100.00
26539;BME280;14205;43.200;24.170;2023-07-02T04:13:08;43141.94;;;-137.44;100.00
26539;BME280;14205;43.200;24.170;2023-07-02T04:15:35;54677.25;;;-137.44;100.00
26539;BME280;14205;43.200;24.170;2023-07-02T04:18:00;72957.59;;;-137.44;100.00
26539;BME280;14205;43.200;24.170;2023-07-02T04:20:26;94971.53;;;-137.44;100.00
26539;BME280;14205;43.200;24.170;2023-07-02T04:22:54;69603.16;;;-137.44;100.00
26539;BME280;14205;43.200;24.170;2023-07-02T04:25:19;61874.69;;;-137.44;100.00
26539;BME280;14205;43.200;24.170;2023-07-02T04:27:45;58531.13;;;-137.44;100.00
26539;BME280;14205;43.200;24.170;2023-07-02T04:30:11;68829.53;;;-137.44;100.00
26539;BME280;14205;43.200;24.170;2023-07-02T04:32:37;94971.53;;;-137.44;100.00
26539;BME280;14205;43.200;24.170;2023-07-02T04:35:08;96010.94;;;-137.44;100.00
26539;BME280;14205;43.200;24.170;2023-07-02T04:37:35;104858.50;;;-137.44;100.00
26539;BME280;14205;43.200;24.170;2023-07-02T04:40:00;96270.84;;;-137.44;100.00
26539;BME280;14205;43.200;24.170;2023-07-02T04:42:27;100952.41;;;-137.44;100.00
26539;BME280;14205;43.200;24.170;2023-07-02T04:44:53;106943.56;;;-137.44;100.00
26539;BME280;14205;43.200;24.170;2023-07-02T04:47:19;107465.03;;;-137.44;100.00
26539;BME280;14205;43.200;24.170;2023-07-02T04:49:45;118693.16;;;-137.44;100.00
26539;BME280;14205;43.200;24.170;2023-07-02T04:52:10;100431.91;;;-137.44;100.00
26539;BME280;14205;43.200;24.170;2023-07-02T04:54:36;108508.19;;;-137.44;100.00
26539;BME280;14205;43.200;24.170;2023-07-02T04:57:02;106682.88;;;-137.44;100.00
26539;BME280;14205;43.200;24.170;2023-07-02T04:59:27;118693.16;;;-137.44;100.00
26539;BME280;14205;43.200;24.170;2023-07-02T05:01:52;118693.16;;;-137.44;100.00
26539;BME280;14205;43.200;24.170;2023-07-02T05:04:18;118693.16;;;-137.44;100.00
26539;BME280;14205;43.200;24.170;2023-07-02T05:06:43;118693.16;;;-137.44;100.00
26539;BME280;14205;43.200;24.170;2023-07-02T05:09:09;118693.16;;;-137.44;100.00
26539;BME280;14205;43.200;24.170;2023-07-02T05:11:34;118693.16;;;-137.44;100.00
26539;BME280;14205;43.200;24.170;2023-07-02T05:13:59;118693.16;;;-137.44;100.00
26539;BME280;14205;43.200;24.170;2023-07-02T05:16:25;118693.16;;;-137.44;100.00
26539;BME280;14205;43.200;24.170;2023-07-02T05:18:50;118693.16;;;-137.44;100.00
26539;BME280;14205;43.200;24.170;2023-07-02T05:21:19;118693.16;;;-137.44;100.00
26539;BME280;14205;43.200;24.170;2023-07-02T05:23:44;118693.16;;;-137.44;100.00
26539;BME280;14205;43.200;24.170;2023-07-02T05:26:10;118693.16;;;-137.44;100.00
26539;BME280;14205;43.200;24.170;2023-07-02T05:28:35;114512.31;;;-137.44;100.00
26539;BME280;14205;43.200;24.170;2023-07-02T05:31:01;111117.41;;;-137.44;100.00
26539;BME280;14205;43.200;24.170;2023-07-02T05:33:26;116742.03;;;-137.44;100.00
26539;BME280;14205;43.200;24.170;2023-07-02T05:35:52;105379.66;;;-137.44;100.00
26539;BME280;14205;43.200;24.170;2023-07-02T05:38:18;118693.16;;;-137.44;100.00
26539;BME280;14205;43.200;24.170;2023-07-02T05:40:45;107465.03;;;-137.44;100.00
26539;BME280;14205;43.200;24.170;2023-07-02T05:43:10;114251.06;;;-137.44;100.00
26539;BME280;14205;43.200;24.170;2023-07-02T05:45:35;118693.16;;;-137.44;100.00
26539;BME280;14205;43.200;24.170;2023-07-02T05:48:01;118693.16;;;-137.44;100.00
26539;BME280;14205;43.200;24.170;2023-07-02T05:50:27;118693.16;;;-137.44;100.00
26539;BME280;14205;43.200;24.170;2023-07-02T05:52:52;118693.16;;;-137.44;100.00
26539;BME280;14205;43.200;24.170;2023-07-02T05:55:17;118693.16;;;-137.44;100.00
26539;BME280;14205;43.200;24.170;2023-07-02T05:57:43;118693.16;;;-137.44;100.00
26539;BME280;14205;43.200;24.170;2023-07-02T06:00:09;118693.16;;;-137.44;100.00
26539;BME280;14205;43.200;24.170;2023-07-02T06:02:34;118693.16;;;-137.44;100.00
26539;BME280;14205;43.200;24.170;2023-07-02T06:04:59;118693.16;;;-137.44;100.00
26539;BME280;14205;43.200;24.170;2023-07-02T06:07:27;118693.16;;;-137.44;100.00
26539;BME280;14205;43.200;24.170;2023-07-02T06:09:52;118693.16;;;-137.44;100.00
26539;BME280;14205;43.200;24.170;2023-07-02T06:12:20;118693.16;;;-137.44;100.00
26539;BME280;14205;43.200;24.170;2023-07-02T06:14:46;118693.16;;;-137.44;100.00
26539;BME280;14205;43.200;24.170;2023-07-02T06:17:11;118693.16;;;-137.44;100.00
26539;BME280;14205;43.200;24.170;2023-07-02T06:19:37;118693.16;;;-137.44;100.00
26539;BME280;14205;43.200;24.170;2023-07-02T06:22:03;118693.16;;;-137.44;100.00
26539;BME280;14205;43.200;24.170;2023-07-02T06:24:28;118693.16;;;-137.44;100.00
26539;BME280;14205;43.200;24.170;2023-07-02T06:26:54;118693.16;;;-137.44;100.00
26539;BME280;14205;43.200;24.170;2023-07-02T06:29:20;118693.16;;;-137.44;100.00
26539;BME280;14205;43.200;24.170;2023-07-02T06:31:46;118693.16;;;-137.44;100.00
26539;BME280;14205;43.200;24.170;2023-07-02T06:34:11;118693.16;;;-137.44;100.00
26539;BME280;14205;43.200;24.170;2023-07-02T06:36:37;118693.16;;;-137.44;100.00
26539;BME280;14205;43.200;24.170;2023-07-02T06:39:02;118693.16;;;-137.44;100.00
26539;BME280;14205;43.200;24.170;2023-07-02T06:41:28;118693.16;;;-137.44;100.00
26539;BME280;14205;43.200;24.170;2023-07-02T06:43:53;118693.16;;;-137.44;100.00
26539;BME280;14205;43.200;24.170;2023-07-02T06:46:19;118693.16;;;-137.44;100.00
26539;BME280;14205;43.200;24.170;2023-07-02T06:48:44;118693.16;;;-137.44;100.00
26539;BME280;14205;43.200;24.170;2023-07-02T06:51:10;118693.16;;;-137.44;100.00
26539;BME280;14205;43.200;24.170;2023-07-02T06:53:37;118693.16;;;-137.44;100.00
26539;BME280;14205;43.200;24.170;2023-07-02T06:56:03;118693.16;;;-137.44;100.00
26539;BME280;14205;43.200;24.170;2023-07-02T06:58:28;118429.53;;;-137.44;100.00
26539;BME280;14205;43.200;24.170;2023-07-02T07:00:54;112679.81;;;-137.44;100.00
26539;BME280;14205;43.200;24.170;2023-07-02T07:03:19;115814.84;;;-137.44;100.00
26539;BME280;14205;43.200;24.170;2023-07-02T07:05:45;118167.97;;;-137.44;100.00
26539;BME280;14205;43.200;24.170;2023-07-02T07:08:10;117644.94;;;-137.44;100.00
26539;BME280;14205;43.200;24.170;2023-07-02T07:10:36;118429.53;;;-137.44;100.00
26539;BME280;14205;43.200;24.170;2023-07-02T07:13:02;118693.16;;;-137.44;100.00
26539;BME280;14205;43.200;24.170;2023-07-02T07:15:32;116337.63;;;-137.44;100.00
26539;BME280;14205;43.200;24.170;2023-07-02T07:17:57;117906.44;;;-137.44;100.00
26539;BME280;14205;43.200;24.170;2023-07-02T07:20:23;113202.13;;;-137.44;100.00
26539;BME280;14205;43.200;24.170;2023-07-02T07:22:48;113463.31;;;-137.44;100.00
26539;BME280;14205;43.200;24.170;2023-07-02T07:25:14;106939.50;;;-137.44;100.00
26539;BME280;14205;43.200;24.170;2023-07-02T07:27:39;109286.66;;;-137.44;100.00
26539;BME280;14205;43.200;24.170;2023-07-02T07:30:05;111896.47;;;-137.44;100.00
26539;BME280;14205;43.200;24.170;2023-07-02T07:32:30;107200.22;;;-137.44;100.00
26539;BME280;14205;43.200;24.170;2023-07-02T07:34:56;101989.53;;;-137.44;100.00
26539;BME280;14205;43.200;24.170;2023-07-02T07:37:21;98866.84;;;-137.44;100.00
26539;BME280;14205;43.200;24.170;2023-07-02T07:39:47;98606.75;;;-137.44;100.00
26539;BME280;14205;43.200;24.170;2023-07-02T07:42:14;101729.19;;;-137.44;100.00
26539;BME280;14205;43.200;24.170;2023-07-02T07:44:40;99126.97;;;-137.44;100.00
26539;BME280;14205;43.200;24.170;2023-07-02T07:47:05;111374.34;;;-137.44;100.00
26539;BME280;14205;43.200;24.170;2023-07-02T07:49:31;112940.94;;;-137.44;100.00
26539;BME280;14205;43.200;24.170;2023-07-02T07:51:56;108243.28;;;-137.44;100.00
26539;BME280;14205;43.200;24.170;2023-07-02T07:54:22;110330.34;;;-137.44;100.00
26539;BME280;14205;43.200;24.170;2023-07-02T07:56:47;108504.09;;;-137.44;100.00
26539;BME280;14205;43.200;24.170;2023-07-02T07:59:13;111374.34;;;-137.44;100.00
26539;BME280;14205;43.200;24.170;2023-07-02T08:01:39;113463.31;;;-137.44;100.00
26539;BME280;14205;43.200;24.170;2023-07-02T08:04:05;110330.34;;;-137.44;100.00
26539;BME280;14205;43.200;24.170;2023-07-02T08:06:31;111896.47;;;-137.44;100.00
26539;BME280;14205;43.200;24.170;2023-07-02T08:08:57;109808.47;;;-137.44;100.00
26539;BME280;14205;43.200;24.170;2023-07-02T08:11:22;105115.00;;;-137.44;100.00
26539;BME280;14205;43.200;24.170;2023-07-02T08:13:48;101208.59;;;-137.44;100.00
26539;BME280;14205;43.200;24.170;2023-07-02T08:16:13;100688.06;;;-137.44;100.00
26539;BME280;14205;43.200;24.170;2023-07-02T08:18:39;98866.84;;;-137.44;100.00
26539;BME280;14205;43.200;24.170;2023-07-02T08:21:04;100948.31;;;-137.44;100.00
26539;BME280;14205;43.200;24.170;2023-07-02T08:23:32;99907.44;;;-137.44;100.00
26539;BME280;14205;43.200;24.170;2023-07-02T08:25:57;87181.78;;;-137.44;100.00
26539;BME280;14205;43.200;24.170;2023-07-02T08:28:22;83036.59;;;-137.44;100.00
26539;BME280;14205;43.200;24.170;2023-07-02T08:30:48;84331.44;;;-137.44;100.00
26539;BME280;14205;43.200;24.170;2023-07-02T08:33:13;96006.88;;;-137.44;100.00
26539;BME280;14205;43.200;24.170;2023-07-02T08:35:39;99647.25;;;-137.44;100.00
26539;BME280;14205;43.200;24.170;2023-07-02T08:38:04;100167.63;;;-137.44;100.00
26539;BME280;14205;43.200;24.170;2023-07-02T08:40:30;93928.34;;;-137.44;100.00
26539;BME280;14205;43.200;24.170;2023-07-02T08:42:55;95227.28;;;-137.44;100.00
26539;BME280;14205;43.200;24.170;2023-07-02T08:45:23;103551.91;;;-137.44;100.00
26539;BME280;14205;43.200;24.170;2023-07-02T08:47:50;99126.97;;;-137.44;100.00
26539;BME280;14205;43.200;24.170;2023-07-02T08:50:16;73211.72;;;-137.44;100.00
26539;BME280;14205;43.200;24.170;2023-07-02T08:52:42;72437.28;;;-137.44;100.00
26539;BME280;14205;43.200;24.170;2023-07-02T08:55:10;58834.41;;;-137.44;100.00
26539;BME280;14205;43.200;24.170;2023-07-02T08:57:35;51819.81;;;-137.44;100.00
26539;BME280;14205;43.200;24.170;2023-07-02T09:00:10;44173.69;;;-137.44;100.00
26539;BME280;14205;43.200;24.170;2023-07-02T09:02:36;44649.69;;;-137.44;92.67
26539;BME280;14205;43.200;24.170;2023-07-02T09:05:02;45081.75;;;-137.44;85.29
26539;BME280;14205;43.200;24.170;2023-07-02T09:07:28;45487.84;;;-137.44;81.34
26539;BME280;14205;43.200;24.170;2023-07-02T09:09:54;45351.81;;;-137.44;83.86
26539;BME280;14205;43.200;24.170;2023-07-02T09:12:26;45535.88;;;-137.44;80.63
26539;BME280;14205;43.200;24.170;2023-07-02T09:15:01;45495.84;;;-137.44;81.48
26539;BME280;14205;43.200;24.170;2023-07-02T09:17:32;45407.84;;;-137.44;81.10
26539;BME280;14205;43.200;24.170;2023-07-02T09:19:59;45870.00;;;-137.44;75.51
26539;BME280;14205;43.200;24.170;2023-07-02T09:22:30;45763.97;;;-137.44;76.90
26539;BME280;14205;43.200;24.170;2023-07-02T09:24:57;45625.91;;;-137.44;80.20
26539;BME280;14205;43.200;24.170;2023-07-02T09:27:41;45515.88;;;-137.44;81.67
26539;BME280;14205;43.200;24.170;2023-07-02T09:30:08;45401.84;;;-137.44;84.67
26539;BME280;14205;43.200;24.170;2023-07-02T09:32:34;45201.78;;;-137.44;86.05
26539;BME280;14205;43.200;24.170;2023-07-02T09:35:00;45161.78;;;-137.44;84.07
26539;BME280;14205;43.200;24.170;2023-07-02T09:37:26;45037.75;;;-137.44;86.10
26539;BME280;14205;43.200;24.170;2023-07-02T09:39:52;45415.84;;;-137.44;79.08
26539;BME280;14205;43.200;24.170;2023-07-02T09:42:19;45173.78;;;-137.44;82.25
26539;BME280;14205;43.200;24.170;2023-07-02T09:44:45;45045.75;;;-137.44;86.49
26539;BME280;14205;43.200;24.170;2023-07-02T09:47:12;45021.75;;;-137.44;84.08
26539;BME280;14205;43.200;24.170;2023-07-02T09:49:45;45131.75;;;-137.44;81.48
26539;BME280;14205;43.200;24.170;2023-07-02T09:52:13;45211.78;;;-137.44;81.69
26539;BME280;14205;43.200;24.170;2023-07-02T09:54:39;45477.84;;;-137.44;78.14
26539;BME280;14205;43.200;24.170;2023-07-02T09:57:05;45237.78;;;-137.44;78.54
26539;BME280;14205;43.200;24.170;2023-07-02T09:59:31;45253.78;;;-137.44;78.94
26539;BME280;14205;43.200;24.170;2023-07-02T10:01:57;45189.78;;;-137.44;81.67
26539;BME280;14205;43.200;24.170;2023-07-02T10:04:23;45321.81;;;-137.44;79.26
26539;BME280;14205;43.200;24.170;2023-07-02T10:06:56;45125.75;;;-137.44;82.04
26539;BME280;14205;43.200;24.170;2023-07-02T10:09:41;45393.81;;;-137.44;75.53
26539;BME280;14205;43.200;24.170;2023-07-02T10:12:28;45229.78;;;-137.44;77.30
26539;BME280;14205;43.200;24.170;2023-07-02T10:14:56;45395.81;;;-137.44;74.95
26539;BME280;14205;43.200;24.170;2023-07-02T10:17:32;45231.78;;;-137.44;78.79
26539;BME280;14205;43.200;24.170;2023-07-02T10:20:02;45633.91;;;-137.44;81.24
26539;BME280;14205;43.200;24.170;2023-07-02T10:22:46;45217.78;;;-137.44;82.53
26539;BME280;14205;43.200;24.170;2023-07-02T10:25:24;45910.03;;;-137.44;71.09
26539;BME280;14205;43.200;24.170;2023-07-02T10:27:50;45882.00;;;-137.44;72.10
26539;BME280;14205;43.200;24.170;2023-07-02T10:30:15;46372.25;;;-137.44;67.82
26539;BME280;14205;43.200;24.170;2023-07-02T10:32:41;45757.94;;;-137.44;72.12
26539;BME280;14205;43.200;24.170;2023-07-02T10:35:16;46202.16;;;-137.44;72.64
26539;BME280;14205;43.200;24.170;2023-07-02T10:37:42;46116.13;;;-137.44;75.38
26539;BME280;14205;43.200;24.170;2023-07-02T10:40:08;45771.97;;;-137.44;75.61
26539;BME280;14205;43.200;24.170;2023-07-02T10:42:48;45874.00;;;-137.44;75.64
26539;BME280;14205;43.200;24.170;2023-07-02T10:45:13;46382.25;;;-137.44;71.75
26539;BME280;14205;43.200;24.170;2023-07-02T10:47:40;46202.16;;;-137.44;70.60
26539;BME280;14205;43.200;24.170;2023-07-02T10:50:18;45645.91;;;-137.44;75.56
26539;BME280;14205;43.200;24.170;2023-07-02T10:52:44;46258.19;;;-137.44;66.87
26539;BME280;14205;43.200;24.170;2023-07-02T10:55:10;46790.53;;;-137.44;63.74
26539;BME280;14205;43.200;24.170;2023-07-02T10:57:35;45755.94;;;-137.44;73.82
26539;BME280;14205;43.200;24.170;2023-07-02T11:00:07;46594.38;;;-137.44;65.24
26539;BME280;14205;43.200;24.170;2023-07-02T11:02:37;46450.31;;;-137.44;65.64
26539;BME280;14205;43.200;24.170;2023-07-02T11:05:06;46066.09;;;-137.44;67.37
26539;BME280;14205;43.200;24.170;2023-07-02T11:07:32;46846.56;;;-137.44;57.17
26539;BME280;14205;43.200;24.170;2023-07-02T11:09:58;46210.16;;;-137.44;60.77
26539;BME280;14205;43.200;24.170;2023-07-02T11:12:30;46678.44;;;-137.44;54.01
26539;BME280;14205;43.200;24.170;2023-07-02T11:15:10;46914.59;;;-137.44;54.59
26539;BME280;14205;43.200;24.170;2023-07-02T11:17:35;47126.78;;;-137.44;52.77
26539;BME280;14205;43.200;24.170;2023-07-02T11:20:01;47439.03;;;-137.44;51.54
26539;BME280;14205;43.200;24.170;2023-07-02T11:22:33;46834.56;;;-137.44;57.88
26539;BME280;14205;43.200;24.170;2023-07-02T11:25:12;45339.81;;;-137.44;68.47
26539;BME280;14205;43.200;24.170;2023-07-02T11:27:38;46722.47;;;-137.44;55.27
26539;BME280;14205;43.200;24.170;2023-07-02T11:30:04;46314.22;;;-137.44;58.96
26539;BME280;14205;43.200;24.170;2023-07-02T11:32:30;46662.44;;;-137.44;55.54
26539;BME280;14205;43.200;24.170;2023-07-02T11:34:55;45541.88;;;-137.44;63.62
26539;BME280;14205;43.200;24.170;2023-07-02T11:37:21;46660.44;;;-137.44;53.12
26539;BME280;14205;43.200;24.170;2023-07-02T11:39:47;47222.84;;;-137.44;48.61
26539;BME280;14205;43.200;24.170;2023-07-02T11:42:12;46814.53;;;-137.44;52.41
26539;BME280;14205;43.200;24.170;2023-07-02T11:44:38;46676.44;;;-137.44;47.70
26539;BME280;14205;43.200;24.170;2023-07-02T11:47:03;47086.75;;;-137.44;47.44
26539;BME280;14205;43.200;24.170;2023-07-02T11:49:29;46344.22;;;-137.44;53.55
26539;BME280;14205;43.200;24.170;2023-07-02T11:51:54;46668.44;;;-137.44;46.11
26539;BME280;14205;43.200;24.170;2023-07-02T11:54:20;46772.50;;;-137.44;46.21
26539;BME280;14205;43.200;24.170;2023-07-02T11:56:45;46436.28;;;-137.44;44.75
26539;BME280;14205;43.200;24.170;2023-07-02T11:59:11;47985.56;;;-137.44;39.35
26539;BME280;14205;43.200;24.170;2023-07-02T12:01:36;47348.97;;;-137.44;46.44
26539;BME280;14205;43.200;24.170;2023-07-02T12:04:02;46506.34;;;-137.44;46.81
26539;BME280;14205;43.200;24.170;2023-07-02T12:06:28;47591.19;;;-137.44;40.14
26539;BME280;14205;43.200;24.170;2023-07-02T12:08:53;47338.94;;;-137.44;44.66
26539;BME280;14205;43.200;24.170;2023-07-02T12:11:18;47206.84;;;-137.44;47.00
26539;BME280;14205;43.200;24.170;2023-07-02T12:13:44;47591.19;;;-137.44;46.72
26539;BME280;14205;43.200;24.170;2023-07-02T12:16:09;47397.00;;;-137.44;50.19
26539;BME280;14205;43.200;24.170;2023-07-02T12:18:35;47385.00;;;-137.44;53.42